Flight Track Log - Related Links

Times and Time Zones

All times are in EDT time to prevent confusion due to time zone crossing. See the N379B flight status page for this flight to view local times or setup timezone preferences in your user account.

Time Position Orientation Groundspeed Altitude Reporting Facility
EDT Latitude Longitude Course Direction KTS MPH feet Rate Location/Type
Thu 06:19:08 PM 38.4139 -98.8539 357° North 227 261 5,500  Level Kansas City Center
Thu 06:20:10 PM 38.4836 -98.8533 360° North 244 281 9,300 3,581 Climbing Kansas City Center
Thu 06:21:12 PM 38.5817 -98.8553 359° North 281 323 12,900 3,145 Climbing Kansas City Center
Thu 06:22:14 PM 38.6683 -98.8622 356° North 304 350 15,800 2,806 Climbing Kansas City Center
Thu 06:23:16 PM 38.7592 -98.8658 358° North 322 371 18,700 2,565 Climbing Kansas City Center
Thu 06:24:00 PM 39.0203 -98.8862 357° North  Level FlightAware Approximate
Thu 06:24:18 PM 38.8519 -98.8725 357° North 330 380 21,100  Level Kansas City Center
Thu 06:25:20 PM 38.9483 -98.8794 357° North 342 394 22,100 435 Climbing Kansas City Center
Thu 06:26:22 PM 39.0519 -98.8861 357° North 367 422 22,000 -48 Descending Kansas City Center
Thu 06:27:24 PM 39.1533 -98.8925 357° North 364 419 22,000  Level Kansas City Center
Thu 06:28:51 PM 39.3150 -98.9047 357° North 364 419 22,000  Level Kansas City Center
Thu 06:29:53 PM 39.4164 -98.9122 357° North 364 419 22,000  Level Kansas City Center
Thu 06:30:15 PM 39.4483 -98.9156 355° North 365 420 22,000  Level Minneapolis Center
Thu 06:30:50 PM 39.5083 -98.9214 356° North 361 415 22,000  Level Denver Center
Thu 06:31:52 PM 39.6086 -98.9342 354° North 361 415 22,000 -290 Level Denver Center
Thu 06:32:54 PM 39.7078 -98.9458 355° North 358 412 21,400 -1,258 Descending Denver Center
Thu 06:33:56 PM 39.8067 -98.9569 355° North 355 409 19,400 -1,839 Descending Denver Center
Thu 06:34:58 PM 39.8994 -98.9669 355° North 338 389 17,600 -1,984 Descending Denver Center
Thu 06:36:00 PM 40.0094 -98.9806 355° North 330 380 15,300 -1,984 Descending Denver Center
Thu 06:37:02 PM 40.0997 -98.9931 354° North 327 376 13,500 -1,753 Descending Denver Center
Thu 06:37:29 PM 40.1336 -98.9972 355° North 325 374 12,700 -1,645 Descending Minneapolis Center
Thu 06:38:04 PM 40.1819 -99.0014 356° North 305 351 11,800 -1,438 Descending Denver Center
Thu 06:39:05 PM 40.2456 -99.0094 354° North 292 336 10,400 -1,597 Descending Denver Center
Thu 06:40:08 PM 40.3394 -99.0219 354° North 284 327 8,500 -1,846 Descending Denver Center
Thu 06:40:36 PM 40.3831 -99.0281 354° North 280 322 7,600 -1,600 Descending Minneapolis Center
Thu 06:41:38 PM 40.4525 -99.0361 355° North 264 304 6,100 -1,355 Descending Minneapolis Center
Thu 06:42:40 PM 40.5181 -99.0444 354° North 250 288 4,800 -677 Descending Minneapolis Center
Thu 06:43:42 PM 40.5664 -99.0353 North 204 235 4,700 -418 Descending Minneapolis Center
Thu 06:45:18 PM 40.6381 -99.0239 North 170 196 3,700 -532 Descending Denver Center
Thu 06:46:20 PM 40.6764 -99.0172 North 153 176 3,300 -387 Descending Denver Center

Login

Don't have an account? Register now (free) for customized features, flight alerts, and more!